Time;durP1;ratioP1;P1;durP2;ratioP2;P2;SDS_P1;SDS_P2;PMS_P1;PMS_P2;Temp;Humidity;BMP_temperature;BMP_pressure;BME280_temperature;BME280_humidity;BME280_pressure;Samples;Min_cycle;Max_cycle;Signal;HPM_P1;HPM_P2
2023/02/25 00:01:10;;;;;;;7.68;1.40;;;;;;;;;;5053571;28;20075;-77
2023/02/25 00:03:36;;;;;;;2.70;0.82;;;;;;;;;;5051100;28;20082;-76
2023/02/25 00:06:03;;;;;;;4.22;1.27;;;;;;;;;;5039331;28;20053;-77
2023/02/25 00:08:29;;;;;;;4.30;1.05;;;;;;;;;;5044025;28;20478;-77
2023/02/25 00:10:56;;;;;;;4.70;1.20;;;;;;;;;;5052063;28;20132;-77
2023/02/25 00:13:22;;;;;;;4.53;1.10;;;;;;;;;;5047047;28;20018;-77
2023/02/25 00:15:48;;;;;;;6.20;1.10;;;;;;;;;;5049812;28;20044;-77
2023/02/25 00:18:14;;;;;;;4.78;1.00;;;;;;;;;;5050347;28;20529;-77
2023/02/25 00:20:41;;;;;;;5.63;1.10;;;;;;;;;;5047543;28;20042;-77
2023/02/25 00:23:07;;;;;;;5.72;1.40;;;;;;;;;;5044574;28;20033;-77
2023/02/25 00:25:33;;;;;;;7.53;1.25;;;;;;;;;;5039353;28;20049;-77
2023/02/25 00:27:59;;;;;;;5.13;0.95;;;;;;;;;;5047625;28;20044;-77
2023/02/25 00:30:25;;;;;;;4.03;0.93;;;;;;;;;;5051927;28;20040;-77
2023/02/25 00:32:51;;;;;;;5.45;1.15;;;;;;;;;;5050620;28;20792;-77
2023/02/25 00:35:17;;;;;;;6.47;1.10;;;;;;;;;;5027143;28;20045;-77
2023/02/25 00:37:43;;;;;;;4.28;1.38;;;;;;;;;;5051390;28;20036;-77
2023/02/25 00:40:13;;;;;;;4.43;1.15;;;;;;;;;;5049729;28;20041;-77
2023/02/25 00:42:39;;;;;;;5.60;1.40;;;;;;;;;;5051443;28;20502;-77
2023/02/25 00:45:05;;;;;;;4.47;1.20;;;;;;;;;;5051184;28;20033;-77
2023/02/25 00:47:31;;;;;;;6.22;0.90;;;;;;;;;;5051246;28;20033;-77
2023/02/25 00:49:57;;;;;;;19.60;8.88;;;;;;;;;;5041375;28;20045;-77
2023/02/25 00:52:23;;;;;;;11.02;2.97;;;;;;;;;;5046703;28;20064;-77
2023/02/25 00:54:50;;;;;;;6.70;1.40;;;;;;;;;;5050339;28;20116;-77
2023/02/25 00:57:16;;;;;;;4.93;1.30;;;;;;;;;;5042209;28;20033;-77
2023/02/25 00:59:42;;;;;;;10.27;3.25;;;;;;;;;;5050643;28;20040;-77
2023/02/25 01:02:08;;;;;;;8.25;3.00;;;;;;;;;;5050705;28;20033;-77
2023/02/25 01:04:34;;;;;;;9.60;2.47;;;;;;;;;;5050152;28;20028;-77
2023/02/25 01:07:00;;;;;;;5.05;1.70;;;;;;;;;;5034583;28;20491;-77
2023/02/25 01:09:26;;;;;;;3.90;1.27;;;;;;;;;;5044811;28;20028;-77
2023/02/25 01:11:52;;;;;;;3.38;1.20;;;;;;;;;;5047892;28;20493;-76
2023/02/25 01:14:20;;;;;;;3.60;1.13;;;;;;;;;;5051027;28;20029;-77
2023/02/25 01:16:47;;;;;;;10.27;1.85;;;;;;;;;;5059073;28;20510;-77
2023/02/25 01:19:16;;;;;;;6.30;0.90;;;;;;;;;;5050167;28;20033;-78
2023/02/25 01:21:43;;;;;;;4.72;0.88;;;;;;;;;;5054342;28;20029;-77
2023/02/25 01:24:11;;;;;;;5.60;0.98;;;;;;;;;;5050633;28;20623;-77
2023/02/25 01:26:38;;;;;;;7.07;1.20;;;;;;;;;;5046862;28;20025;-77
2023/02/25 01:29:08;;;;;;;3.85;1.23;;;;;;;;;;5033202;28;20056;-77
2023/02/25 01:31:34;;;;;;;3.35;0.90;;;;;;;;;;5049634;28;20044;-77
2023/02/25 01:34:02;;;;;;;7.53;1.65;;;;;;;;;;5050337;28;20056;-77
2023/02/25 01:36:29;;;;;;;4.65;1.25;;;;;;;;;;5045052;28;20029;-77
2023/02/25 01:38:55;;;;;;;4.97;1.00;;;;;;;;;;5050502;28;20071;-77
2023/02/25 01:41:22;;;;;;;5.68;1.33;;;;;;;;;;5049888;28;20033;-77
2023/02/25 01:44:04;;;;;;;6.95;1.20;;;;;;;;;;5045951;28;20479;-77
2023/02/25 01:46:31;;;;;;;5.53;1.13;;;;;;;;;;5044548;28;20108;-77
2023/02/25 01:48:57;;;;;;;7.47;1.15;;;;;;;;;;5050083;28;20039;-76
2023/02/25 01:51:26;;;;;;;5.82;1.73;;;;;;;;;;5041408;28;20051;-77
2023/02/25 01:53:53;;;;;;;8.10;2.90;;;;;;;;;;5050035;28;20083;-77
2023/02/25 01:56:19;;;;;;;5.93;1.70;;;;;;;;;;5047672;28;20033;-76
2023/02/25 01:58:47;;;;;;;4.40;1.20;;;;;;;;;;5049875;28;20060;-77
2023/02/25 02:01:14;;;;;;;8.30;2.05;;;;;;;;;;5051782;28;20029;-77
2023/02/25 02:03:42;;;;;;;5.30;1.60;;;;;;;;;;5050565;28;20045;-76
2023/02/25 02:06:11;;;;;;;4.28;1.30;;;;;;;;;;5044099;28;20394;-76
2023/02/25 02:08:37;;;;;;;7.03;1.20;;;;;;;;;;5055130;28;20772;-77
2023/02/25 02:11:05;;;;;;;4.47;1.20;;;;;;;;;;5047701;28;20127;-76
2023/02/25 02:13:33;;;;;;;5.38;1.00;;;;;;;;;;5049400;28;20784;-77
2023/02/25 02:16:06;;;;;;;4.43;1.10;;;;;;;;;;5045097;28;20040;-77
2023/02/25 02:18:34;;;;;;;3.92;1.15;;;;;;;;;;5040266;28;20028;-77
2023/02/25 02:21:18;;;;;;;5.75;1.50;;;;;;;;;;5042802;28;20479;-77
2023/02/25 02:23:54;;;;;;;3.55;1.30;;;;;;;;;;5049116;28;20044;-77
2023/02/25 02:26:26;;;;;;;6.72;1.15;;;;;;;;;;5048574;28;20033;-77
2023/02/25 02:29:18;;;;;;;5.25;1.10;;;;;;;;;;5042015;28;20378;-77
2023/02/25 02:31:59;;;;;;;4.70;0.90;;;;;;;;;;5048323;28;20044;-76
2023/02/25 02:34:37;;;;;;;6.38;1.23;;;;;;;;;;5049466;28;20275;-77
2023/02/25 02:37:14;;;;;;;4.20;1.30;;;;;;;;;;5045697;28;20029;-77
2023/02/25 02:39:43;;;;;;;5.03;1.65;;;;;;;;;;5048429;28;20502;-77
2023/02/25 02:42:30;;;;;;;8.38;3.80;;;;;;;;;;5048535;28;20036;-77
2023/02/25 02:45:00;;;;;;;10.35;3.55;;;;;;;;;;5049245;28;20493;-77
2023/02/25 02:47:37;;;;;;;10.73;3.22;;;;;;;;;;5048370;28;20736;-77
2023/02/25 02:50:11;;;;;;;7.95;2.97;;;;;;;;;;5049952;28;20698;-77
2023/02/25 02:52:40;;;;;;;11.38;4.80;;;;;;;;;;5048398;28;20025;-77
2023/02/25 02:55:09;;;;;;;23.23;11.10;;;;;;;;;;5049367;28;20458;-77
2023/02/25 02:57:37;;;;;;;30.80;14.27;;;;;;;;;;5048452;28;20079;-77
2023/02/25 03:00:16;;;;;;;39.47;18.40;;;;;;;;;;5049301;28;20044;-77
2023/02/25 03:02:44;;;;;;;32.92;16.30;;;;;;;;;;5047396;28;20116;-77
2023/02/25 03:05:12;;;;;;;23.15;11.35;;;;;;;;;;5049432;28;20079;-76
2023/02/25 03:07:42;;;;;;;18.95;9.20;;;;;;;;;;5049058;28;20455;-77
2023/02/25 03:10:10;;;;;;;9.88;4.22;;;;;;;;;;5043288;28;20045;-77
2023/02/25 03:12:37;;;;;;;9.93;3.33;;;;;;;;;;5044572;28;20060;-77
2023/02/25 03:15:03;;;;;;;7.82;3.08;;;;;;;;;;5049284;28;20120;-77
2023/02/25 03:17:33;;;;;;;10.13;3.08;;;;;;;;;;5046877;28;20028;-77
2023/02/25 03:20:09;;;;;;;9.85;2.67;;;;;;;;;;5043404;28;20034;-77
2023/02/25 03:22:40;;;;;;;7.22;2.40;;;;;;;;;;5046224;28;20036;-77
2023/02/25 03:25:12;;;;;;;7.97;2.70;;;;;;;;;;5049362;28;20036;-77
2023/02/25 03:27:41;;;;;;;7.60;2.30;;;;;;;;;;5049969;28;20036;-77
2023/02/25 03:30:11;;;;;;;10.80;3.90;;;;;;;;;;5047738;28;20033;-77
2023/02/25 03:32:39;;;;;;;17.50;10.75;;;;;;;;;;5048016;28;20021;-77
2023/02/25 03:35:08;;;;;;;16.15;8.30;;;;;;;;;;5053236;28;20044;-77
2023/02/25 03:37:37;;;;;;;16.63;9.18;;;;;;;;;;5048741;28;20159;-77
2023/02/25 03:40:10;;;;;;;22.02;10.85;;;;;;;;;;5053682;28;20083;-76
2023/02/25 03:42:38;;;;;;;20.70;10.95;;;;;;;;;;5047032;28;20718;-77
2023/02/25 03:45:07;;;;;;;18.23;10.10;;;;;;;;;;5051951;28;20727;-77
2023/02/25 03:47:34;;;;;;;12.23;6.57;;;;;;;;;;5045021;28;20431;-77
2023/02/25 03:50:13;;;;;;;15.05;5.30;;;;;;;;;;5048017;28;20055;-77
2023/02/25 03:52:40;;;;;;;5.90;1.85;;;;;;;;;;5051980;28;20052;-77
2023/02/25 03:55:08;;;;;;;7.13;2.28;;;;;;;;;;5042540;28;20421;-77
2023/02/25 03:57:36;;;;;;;9.35;2.67;;;;;;;;;;5048416;28;20120;-77
2023/02/25 04:00:12;;;;;;;10.70;2.28;;;;;;;;;;5047908;28;20899;-76
2023/02/25 04:02:39;;;;;;;9.73;2.10;;;;;;;;;;5045612;28;20552;-77
2023/02/25 04:05:05;;;;;;;8.05;2.28;;;;;;;;;;5043507;28;20109;-77
2023/02/25 04:07:31;;;;;;;7.32;1.90;;;;;;;;;;5044604;28;20049;-77
2023/02/25 04:09:57;;;;;;;6.80;2.20;;;;;;;;;;5052143;28;20742;-77
2023/02/25 04:12:23;;;;;;;6.57;1.60;;;;;;;;;;5051064;28;20025;-77
2023/02/25 04:14:49;;;;;;;5.53;1.55;;;;;;;;;;5052151;28;20033;-77
2023/02/25 04:17:15;;;;;;;4.68;1.63;;;;;;;;;;5050951;28;20029;-77
2023/02/25 04:19:41;;;;;;;6.90;1.80;;;;;;;;;;5044246;28;20033;-77
2023/02/25 04:22:07;;;;;;;6.28;1.67;;;;;;;;;;5042392;28;20040;-77
2023/02/25 04:24:33;;;;;;;5.75;1.63;;;;;;;;;;5051724;28;20632;-77
2023/02/25 04:27:00;;;;;;;5.63;1.77;;;;;;;;;;5051012;28;20033;-77
2023/02/25 04:29:27;;;;;;;5.57;1.98;;;;;;;;;;5046141;28;20040;-77
2023/02/25 04:31:53;;;;;;;7.40;1.83;;;;;;;;;;5047773;28;20060;-77
2023/02/25 04:34:19;;;;;;;5.70;2.00;;;;;;;;;;5048154;28;20395;-77
2023/02/25 04:36:45;;;;;;;6.70;1.52;;;;;;;;;;5035047;28;20061;-77
2023/02/25 04:39:11;;;;;;;3.60;1.17;;;;;;;;;;5051344;28;20044;-77
2023/02/25 04:41:38;;;;;;;6.55;1.90;;;;;;;;;;5051445;28;20114;-76
2023/02/25 04:44:05;;;;;;;6.88;1.88;;;;;;;;;;5051222;28;20162;-77
2023/02/25 04:46:32;;;;;;;7.45;1.88;;;;;;;;;;5044191;28;20045;-76
2023/02/25 04:48:58;;;;;;;6.38;2.22;;;;;;;;;;5050903;28;20040;-77
2023/02/25 04:51:24;;;;;;;8.75;3.00;;;;;;;;;;5051154;28;20045;-77
2023/02/25 04:53:50;;;;;;;9.73;2.95;;;;;;;;;;5055187;28;20098;-76
2023/02/25 04:56:16;;;;;;;7.38;2.40;;;;;;;;;;5042433;28;20107;-76
2023/02/25 04:58:43;;;;;;;8.15;2.63;;;;;;;;;;5050455;28;20059;-77
2023/02/25 05:01:09;;;;;;;10.82;2.97;;;;;;;;;;5051141;28;20033;-77
2023/02/25 05:03:36;;;;;;;6.43;2.72;;;;;;;;;;5060447;28;20052;-77
2023/02/25 05:06:02;;;;;;;6.07;2.50;;;;;;;;;;5050779;28;20544;-77
2023/02/25 05:08:28;;;;;;;9.02;2.53;;;;;;;;;;5049983;28;20312;-77
2023/02/25 05:10:54;;;;;;;7.60;2.65;;;;;;;;;;5051019;28;20045;-77
2023/02/25 05:13:21;;;;;;;11.18;2.75;;;;;;;;;;5050096;28;20593;-77
2023/02/25 05:15:47;;;;;;;10.15;3.80;;;;;;;;;;5039724;28;20033;-76
2023/02/25 05:18:13;;;;;;;8.40;3.28;;;;;;;;;;5046022;28;20017;-77
2023/02/25 05:20:40;;;;;;;5.93;2.70;;;;;;;;;;5050706;28;20128;-77
2023/02/25 05:23:06;;;;;;;10.77;2.97;;;;;;;;;;5060089;28;20052;-77
2023/02/25 05:25:32;;;;;;;8.38;3.20;;;;;;;;;;5051433;28;20123;-77
2023/02/25 05:27:58;;;;;;;7.22;2.85;;;;;;;;;;5054534;28;20032;-77
2023/02/25 05:30:25;;;;;;;7.55;2.80;;;;;;;;;;5043237;28;20029;-77
2023/02/25 05:32:51;;;;;;;7.88;3.53;;;;;;;;;;5051759;28;20100;-76
2023/02/25 05:35:17;;;;;;;11.60;3.03;;;;;;;;;;5041275;28;20386;-77
2023/02/25 05:37:43;;;;;;;8.98;3.25;;;;;;;;;;5043785;28;20033;-77
2023/02/25 05:40:09;;;;;;;8.88;3.70;;;;;;;;;;5049514;28;20037;-76
2023/02/25 05:42:36;;;;;;;6.60;2.90;;;;;;;;;;5040741;28;20390;-77
2023/02/25 05:45:02;;;;;;;9.25;3.40;;;;;;;;;;5044520;28;20555;-77
2023/02/25 05:47:28;;;;;;;6.68;3.63;;;;;;;;;;5048207;28;20055;-77
2023/02/25 05:49:54;;;;;;;12.38;4.07;;;;;;;;;;5050347;28;20446;-76
2023/02/25 05:52:20;;;;;;;7.65;3.05;;;;;;;;;;5032689;28;20033;-77
2023/02/25 05:54:47;;;;;;;7.68;3.08;;;;;;;;;;5046470;28;20517;-77
2023/02/25 05:57:13;;;;;;;7.28;3.00;;;;;;;;;;5041167;28;20041;-77
2023/02/25 05:59:39;;;;;;;6.72;2.60;;;;;;;;;;5046594;28;20025;-77
2023/02/25 06:02:05;;;;;;;11.00;3.88;;;;;;;;;;5049303;28;20871;-77
2023/02/25 06:04:31;;;;;;;10.57;4.47;;;;;;;;;;5049894;28;20116;-77
2023/02/25 06:06:57;;;;;;;11.68;4.18;;;;;;;;;;5049208;28;20128;-77
2023/02/25 06:09:23;;;;;;;9.18;3.90;;;;;;;;;;5049720;28;22271;-77
2023/02/25 06:11:49;;;;;;;13.95;4.45;;;;;;;;;;5048917;28;20069;-77
2023/02/25 06:14:15;;;;;;;10.93;3.70;;;;;;;;;;5050141;28;20025;-77
2023/02/25 06:16:41;;;;;;;9.73;4.00;;;;;;;;;;5048954;28;20913;-77
2023/02/25 06:19:07;;;;;;;7.82;3.58;;;;;;;;;;5040324;28;20029;-77
2023/02/25 06:21:34;;;;;;;12.05;4.57;;;;;;;;;;5049434;28;20504;-77
2023/02/25 06:24:00;;;;;;;10.65;4.50;;;;;;;;;;5050453;28;20083;-77
2023/02/25 06:26:26;;;;;;;12.27;4.10;;;;;;;;;;5045598;28;20033;-76
2023/02/25 06:28:53;;;;;;;11.65;3.72;;;;;;;;;;5045571;28;20841;-77
2023/02/25 06:31:21;;;;;;;7.45;3.75;;;;;;;;;;5048700;28;20525;-77
2023/02/25 06:33:49;;;;;;;7.97;4.32;;;;;;;;;;5043604;28;20115;-77
2023/02/25 06:36:15;;;;;;;8.20;3.90;;;;;;;;;;5047207;28;20486;-77
2023/02/25 06:38:44;;;;;;;7.40;3.45;;;;;;;;;;5048661;28;20056;-77
2023/02/25 06:41:14;;;;;;;8.35;3.42;;;;;;;;;;5040443;28;20383;-77
2023/02/25 06:43:40;;;;;;;8.65;3.88;;;;;;;;;;5047289;28;20660;-76
2023/02/25 06:46:07;;;;;;;10.07;4.22;;;;;;;;;;5042496;28;20045;-76
2023/02/25 06:48:33;;;;;;;13.70;6.10;;;;;;;;;;5047988;28;20136;-76
2023/02/25 06:50:59;;;;;;;18.02;7.85;;;;;;;;;;5048360;28;20028;-77
2023/02/25 06:53:25;;;;;;;19.45;9.27;;;;;;;;;;5049251;28;20032;-77
2023/02/25 06:55:51;;;;;;;18.45;9.00;;;;;;;;;;5043664;28;20036;-77
2023/02/25 06:58:17;;;;;;;19.25;8.52;;;;;;;;;;5050223;28;20037;-77
2023/02/25 07:00:44;;;;;;;19.13;7.85;;;;;;;;;;5049149;28;20052;-77
2023/02/25 07:03:14;;;;;;;16.02;7.07;;;;;;;;;;5048926;28;20454;-76
2023/02/25 07:05:40;;;;;;;18.05;7.05;;;;;;;;;;5048135;28;20029;-76
2023/02/25 07:08:06;;;;;;;9.95;5.43;;;;;;;;;;5045010;28;20039;-77
2023/02/25 07:10:32;;;;;;;10.25;5.80;;;;;;;;;;5044916;28;20033;-76
2023/02/25 07:12:58;;;;;;;11.23;6.65;;;;;;;;;;5045187;28;20072;-76
2023/02/25 07:15:24;;;;;;;11.13;6.40;;;;;;;;;;5048963;28;20427;-76
2023/02/25 07:17:50;;;;;;;11.85;6.28;;;;;;;;;;5052476;28;20036;-76
2023/02/25 07:20:16;;;;;;;11.68;6.07;;;;;;;;;;5045671;28;20710;-76
2023/02/25 07:22:42;;;;;;;12.23;5.40;;;;;;;;;;5049491;28;20036;-77
2023/02/25 07:25:12;;;;;;;12.85;7.10;;;;;;;;;;5051593;28;20438;-77
2023/02/25 07:27:41;;;;;;;17.10;6.68;;;;;;;;;;5049972;28;20048;-77
2023/02/25 07:30:07;;;;;;;10.98;6.07;;;;;;;;;;5049257;28;20120;-76
2023/02/25 07:32:33;;;;;;;10.57;6.03;;;;;;;;;;5050862;28;20038;-76
2023/02/25 07:35:00;;;;;;;11.77;5.38;;;;;;;;;;5044521;28;20425;-76
2023/02/25 07:37:26;;;;;;;12.85;5.78;;;;;;;;;;5031965;28;20152;-76
2023/02/25 07:39:52;;;;;;;8.32;5.07;;;;;;;;;;5052673;28;20830;-76
2023/02/25 07:42:18;;;;;;;11.55;5.18;;;;;;;;;;5055701;28;20082;-76
2023/02/25 07:44:44;;;;;;;12.48;4.32;;;;;;;;;;5043594;28;20557;-77
2023/02/25 07:47:10;;;;;;;7.82;4.38;;;;;;;;;;5046671;28;20037;-76
2023/02/25 07:49:36;;;;;;;12.98;4.90;;;;;;;;;;5044126;28;20037;-76
2023/02/25 07:52:02;;;;;;;11.13;4.65;;;;;;;;;;5052935;28;20450;-76
2023/02/25 07:54:28;;;;;;;9.38;4.28;;;;;;;;;;5055280;28;20036;-76
2023/02/25 07:56:54;;;;;;;9.93;4.15;;;;;;;;;;5050042;28;20091;-76
2023/02/25 07:59:21;;;;;;;8.70;4.45;;;;;;;;;;5050223;28;20471;-76
2023/02/25 08:01:47;;;;;;;8.02;4.30;;;;;;;;;;5047853;28;20034;-76
2023/02/25 08:04:13;;;;;;;8.52;3.90;;;;;;;;;;5055742;28;20037;-76
2023/02/25 08:06:40;;;;;;;9.93;4.28;;;;;;;;;;5050828;28;20421;-76
2023/02/25 08:09:07;;;;;;;9.23;3.97;;;;;;;;;;5050731;28;20188;-77
2023/02/25 08:11:33;;;;;;;11.77;3.92;;;;;;;;;;5050596;28;20047;-76
2023/02/25 08:14:00;;;;;;;9.80;5.07;;;;;;;;;;5048912;28;20072;-77
2023/02/25 08:16:26;;;;;;;10.52;4.18;;;;;;;;;;5051276;28;20041;-76
2023/02/25 08:18:53;;;;;;;9.07;4.38;;;;;;;;;;5049547;28;20065;-76
2023/02/25 08:21:20;;;;;;;8.75;4.45;;;;;;;;;;5050702;28;20056;-76
2023/02/25 08:23:47;;;;;;;10.05;3.97;;;;;;;;;;5050892;28;20387;-76
2023/02/25 08:26:16;;;;;;;10.40;4.30;;;;;;;;;;5050783;28;20083;-76
2023/02/25 08:28:42;;;;;;;9.10;3.88;;;;;;;;;;5050787;28;20071;-76
2023/02/25 08:31:10;;;;;;;7.20;3.83;;;;;;;;;;5042187;28;20092;-76
2023/02/25 08:33:37;;;;;;;10.00;4.18;;;;;;;;;;5051499;28;20124;-76
2023/02/25 08:36:08;;;;;;;8.38;3.95;;;;;;;;;;5050728;28;20041;-76
2023/02/25 08:38:35;;;;;;;10.65;4.00;;;;;;;;;;5029636;28;20442;-77
2023/02/25 08:41:01;;;;;;;8.98;3.20;;;;;;;;;;5050724;28;20474;-76
2023/02/25 08:43:27;;;;;;;10.30;3.67;;;;;;;;;;5048374;28;20029;-76
2023/02/25 08:45:55;;;;;;;10.52;3.97;;;;;;;;;;5047257;28;20106;-77
2023/02/25 08:48:21;;;;;;;9.30;3.58;;;;;;;;;;5050239;28;20772;-76
2023/02/25 08:50:47;;;;;;;6.80;3.10;;;;;;;;;;5050359;28;20120;-76
2023/02/25 08:53:13;;;;;;;8.90;3.75;;;;;;;;;;5050114;28;20032;-76
2023/02/25 08:55:39;;;;;;;7.85;3.90;;;;;;;;;;5048767;28;20040;-76
2023/02/25 08:58:05;;;;;;;8.40;4.90;;;;;;;;;;5049441;28;20080;-77
2023/02/25 09:00:32;;;;;;;10.30;4.78;;;;;;;;;;5049891;28;20028;-76
2023/02/25 09:02:58;;;;;;;8.15;4.07;;;;;;;;;;5050667;28;20033;-76
2023/02/25 09:05:24;;;;;;;8.68;4.22;;;;;;;;;;5048127;28;20076;-76
2023/02/25 09:07:54;;;;;;;9.90;4.07;;;;;;;;;;5047134;28;20087;-76
2023/02/25 09:10:20;;;;;;;11.30;4.15;;;;;;;;;;5044802;28;20030;-76
2023/02/25 09:12:47;;;;;;;8.98;4.18;;;;;;;;;;5046927;28;20083;-76
2023/02/25 09:15:13;;;;;;;8.73;3.80;;;;;;;;;;5045867;28;20075;-76
2023/02/25 09:17:39;;;;;;;11.93;3.50;;;;;;;;;;5049563;28;20477;-76
2023/02/25 09:20:06;;;;;;;8.13;3.10;;;;;;;;;;5045524;28;20796;-76
2023/02/25 09:22:37;;;;;;;10.73;4.30;;;;;;;;;;5028174;28;20044;-76
2023/02/25 09:25:03;;;;;;;9.15;3.30;;;;;;;;;;5048253;28;20025;-77
2023/02/25 09:27:29;;;;;;;7.97;3.80;;;;;;;;;;5050792;28;20031;-77
2023/02/25 09:29:55;;;;;;;8.63;3.55;;;;;;;;;;5047362;28;20021;-76
2023/02/25 09:32:21;;;;;;;8.55;4.20;;;;;;;;;;5049306;28;20036;-76
2023/02/25 09:34:48;;;;;;;8.52;3.75;;;;;;;;;;5042905;28;20025;-76
2023/02/25 09:37:14;;;;;;;9.07;3.47;;;;;;;;;;5048357;28;20043;-77
2023/02/25 09:39:41;;;;;;;9.95;4.05;;;;;;;;;;5049407;28;20034;-77
2023/02/25 09:42:14;;;;;;;9.40;4.40;;;;;;;;;;5050066;28;20029;-76
2023/02/25 09:44:45;;;;;;;9.80;4.03;;;;;;;;;;5048265;28;20033;-76
2023/02/25 09:47:23;;;;;;;10.50;3.55;;;;;;;;;;5049711;28;20439;-76
2023/02/25 09:49:57;;;;;;;9.98;3.40;;;;;;;;;;5049511;28;20028;-76
2023/02/25 09:52:32;;;;;;;7.30;3.08;;;;;;;;;;5049474;28;20071;-76
2023/02/25 09:55:02;;;;;;;9.88;3.72;;;;;;;;;;5037950;28;20049;-77
2023/02/25 09:57:30;;;;;;;10.35;3.55;;;;;;;;;;5046233;28;20378;-76
2023/02/25 09:59:56;;;;;;;8.20;3.53;;;;;;;;;;5048546;28;20107;-77
2023/02/25 10:02:32;;;;;;;7.63;3.35;;;;;;;;;;5049216;28;20044;-76
2023/02/25 10:05:00;;;;;;;15.90;4.78;;;;;;;;;;5046627;28;20033;-77
2023/02/25 10:07:32;;;;;;;8.38;3.13;;;;;;;;;;5050364;28;20464;-77
2023/02/25 10:10:03;;;;;;;9.38;2.70;;;;;;;;;;5049563;28;20033;-77
2023/02/25 10:12:52;;;;;;;7.07;2.53;;;;;;;;;;5047903;28;20402;-76
2023/02/25 10:15:29;;;;;;;8.73;3.60;;;;;;;;;;5008041;28;20124;-77
2023/02/25 10:18:04;;;;;;;8.00;3.25;;;;;;;;;;5046371;28;20106;-77
2023/02/25 10:20:48;;;;;;;7.43;3.42;;;;;;;;;;5042256;28;20021;-76
2023/02/25 10:23:14;;;;;;;13.32;3.47;;;;;;;;;;5047387;28;20076;-77
2023/02/25 10:25:44;;;;;;;6.45;2.95;;;;;;;;;;5049483;28;20060;-76
2023/02/25 10:28:13;;;;;;;9.20;3.38;;;;;;;;;;5053386;28;20040;-77
2023/02/25 10:30:48;;;;;;;7.65;3.47;;;;;;;;;;5050089;28;20405;-76
2023/02/25 10:33:20;;;;;;;7.72;3.40;;;;;;;;;;5054660;28;20056;-77
2023/02/25 10:35:47;;;;;;;6.72;2.85;;;;;;;;;;5050020;28;20060;-77
2023/02/25 10:38:14;;;;;;;9.90;3.30;;;;;;;;;;5048825;28;20474;-77
2023/02/25 10:40:40;;;;;;;11.13;3.13;;;;;;;;;;5048536;28;20370;-77
2023/02/25 10:43:16;;;;;;;7.20;3.22;;;;;;;;;;5048361;28;20039;-76
2023/02/25 10:45:45;;;;;;;8.13;2.47;;;;;;;;;;5049309;28;20030;-77
2023/02/25 10:48:17;;;;;;;6.93;2.60;;;;;;;;;;5055244;28;20036;-76
2023/02/25 10:50:43;;;;;;;9.38;2.97;;;;;;;;;;5051846;28;20041;-77
2023/02/25 10:53:13;;;;;;;7.07;2.35;;;;;;;;;;5048537;28;20518;-76
2023/02/25 10:55:42;;;;;;;5.80;2.58;;;;;;;;;;5044141;28;20035;-77
2023/02/25 10:58:24;;;;;;;10.07;2.50;;;;;;;;;;5048184;28;20033;-76
2023/02/25 11:00:55;;;;;;;10.25;2.63;;;;;;;;;;5047960;28;20033;-77
2023/02/25 11:03:22;;;;;;;9.13;2.42;;;;;;;;;;5046176;28;20033;-77
2023/02/25 11:05:48;;;;;;;7.93;2.42;;;;;;;;;;5043626;28;20043;-77
2023/02/25 11:08:32;;;;;;;8.95;2.75;;;;;;;;;;5046978;28;20483;-77
2023/02/25 11:11:02;;;;;;;6.47;2.35;;;;;;;;;;5046212;28;20048;-77
2023/02/25 11:13:29;;;;;;;11.98;2.97;;;;;;;;;;5043973;28;20028;-77
2023/02/25 11:16:05;;;;;;;7.55;2.80;;;;;;;;;;5048715;28;20435;-77
2023/02/25 11:18:31;;;;;;;8.15;2.53;;;;;;;;;;5029630;28;20029;-76
2023/02/25 11:21:24;;;;;;;10.98;3.22;;;;;;;;;;5030402;28;20152;-77
2023/02/25 11:23:51;;;;;;;11.35;2.10;;;;;;;;;;5012389;28;20056;-76
2023/02/25 11:26:27;;;;;;;9.45;2.75;;;;;;;;;;5048334;28;20029;-77
2023/02/25 11:28:54;;;;;;;9.82;2.58;;;;;;;;;;5045529;28;20080;-77
2023/02/25 11:31:21;;;;;;;9.68;2.45;;;;;;;;;;5043623;28;20104;-77
2023/02/25 11:34:02;;;;;;;10.05;2.95;;;;;;;;;;5048663;28;20033;-77
2023/02/25 11:36:37;;;;;;;12.55;2.88;;;;;;;;;;5048153;28;20029;-77
2023/02/25 11:39:03;;;;;;;8.38;2.50;;;;;;;;;;5050736;28;20036;-77
2023/02/25 11:41:31;;;;;;;7.75;2.78;;;;;;;;;;5048266;28;20029;-77
2023/02/25 11:43:57;;;;;;;10.10;2.97;;;;;;;;;;5047777;28;20069;-76
2023/02/25 11:46:30;;;;;;;6.43;2.58;;;;;;;;;;5046805;28;20533;-76
2023/02/25 11:49:14;;;;;;;8.70;2.83;;;;;;;;;;5050436;28;20029;-76
2023/02/25 11:51:46;;;;;;;9.00;2.92;;;;;;;;;;5048717;28;20087;-77
2023/02/25 11:54:12;;;;;;;8.15;2.45;;;;;;;;;;5048050;28;20033;-77
2023/02/25 11:56:42;;;;;;;7.80;3.00;;;;;;;;;;5048315;28;20029;-77
2023/02/25 11:59:30;;;;;;;7.93;2.80;;;;;;;;;;5043482;28;20036;-77
2023/02/25 12:02:15;;;;;;;9.13;2.55;;;;;;;;;;5047838;28;20474;-77
2023/02/25 12:04:59;;;;;;;12.48;2.92;;;;;;;;;;5050559;28;20102;-77
2023/02/25 12:07:44;;;;;;;10.73;3.03;;;;;;;;;;5051201;28;20132;-77
2023/02/25 12:10:28;;;;;;;9.88;2.42;;;;;;;;;;5050815;28;20522;-77
2023/02/25 12:13:01;;;;;;;7.47;2.65;;;;;;;;;;5050797;28;20064;-77
2023/02/25 12:15:37;;;;;;;11.25;2.72;;;;;;;;;;5048116;28;20028;-77
2023/02/25 12:18:09;;;;;;;10.70;3.05;;;;;;;;;;5051428;28;20739;-77
2023/02/25 12:20:54;;;;;;;13.32;3.15;;;;;;;;;;5057443;28;20063;-77
2023/02/25 12:23:38;;;;;;;6.57;2.70;;;;;;;;;;5048737;28;20877;-77
2023/02/25 12:26:05;;;;;;;13.05;2.75;;;;;;;;;;5049479;28;20126;-77
2023/02/25 12:28:44;;;;;;;7.32;2.38;;;;;;;;;;5051212;28;20859;-77
2023/02/25 12:31:29;;;;;;;8.10;2.17;;;;;;;;;;5051714;28;20058;-77
2023/02/25 12:33:57;;;;;;;5.00;1.60;;;;;;;;;;5051354;28;20429;-77
2023/02/25 12:36:42;;;;;;;12.05;2.40;;;;;;;;;;5049484;28;20074;-77
2023/02/25 12:39:20;;;;;;;11.27;2.03;;;;;;;;;;5042444;28;20078;-77
2023/02/25 12:41:46;;;;;;;10.45;1.95;;;;;;;;;;5050714;28;20037;-77
2023/02/25 12:44:31;;;;;;;7.55;1.52;;;;;;;;;;5045944;28;20040;-77
2023/02/25 12:47:00;;;;;;;6.55;2.15;;;;;;;;;;5049610;28;20493;-77
2023/02/25 12:49:45;;;;;;;9.55;1.88;;;;;;;;;;5047154;28;20045;-77
2023/02/25 12:52:34;;;;;;;7.47;1.50;;;;;;;;;;5047670;28;20051;-77
2023/02/25 12:55:18;;;;;;;5.07;1.50;;;;;;;;;;5050899;28;20029;-77
2023/02/25 12:57:58;;;;;;;11.63;1.83;;;;;;;;;;5047194;28;20100;-76
2023/02/25 13:00:32;;;;;;;5.40;1.40;;;;;;;;;;5042677;28;20028;-77
2023/02/25 13:03:07;;;;;;;7.35;1.88;;;;;;;;;;5049960;28;20132;-77
2023/02/25 13:05:36;;;;;;;9.18;1.60;;;;;;;;;;5050651;28;20104;-77
2023/02/25 13:08:26;;;;;;;8.80;1.52;;;;;;;;;;5050376;28;20052;-77
2023/02/25 13:10:56;;;;;;;6.82;1.98;;;;;;;;;;4996801;28;20099;-77
2023/02/25 13:13:25;;;;;;;5.78;1.10;;;;;;;;;;5048299;28;20029;-77
2023/02/25 13:15:54;;;;;;;7.75;1.52;;;;;;;;;;5043586;28;20037;-76
2023/02/25 13:18:23;;;;;;;7.85;1.63;;;;;;;;;;5050189;28;20029;-76
2023/02/25 13:20:49;;;;;;;6.70;2.08;;;;;;;;;;5050483;28;20036;-77
2023/02/25 13:23:25;;;;;;;9.55;1.60;;;;;;;;;;5049859;28;20066;-77
2023/02/25 13:26:00;;;;;;;6.55;1.73;;;;;;;;;;5044686;28;20036;-77
2023/02/25 13:28:39;;;;;;;12.05;2.50;;;;;;;;;;5047830;28;20033;-77
2023/02/25 13:31:11;;;;;;;10.35;2.00;;;;;;;;;;5047923;28;20028;-77
2023/02/25 13:33:50;;;;;;;10.05;2.22;;;;;;;;;;5050584;28;20025;-76
2023/02/25 13:36:16;;;;;;;8.02;2.47;;;;;;;;;;5046113;28;20033;-77
2023/02/25 13:38:51;;;;;;;7.53;2.25;;;;;;;;;;5050313;28;20489;-77
2023/02/25 13:41:37;;;;;;;10.25;2.20;;;;;;;;;;5047421;28;20032;-77
2023/02/25 13:44:12;;;;;;;8.90;2.55;;;;;;;;;;5049961;28;20051;-77
2023/02/25 13:46:41;;;;;;;8.90;2.13;;;;;;;;;;5048932;28;20028;-77
2023/02/25 13:49:26;;;;;;;11.27;2.35;;;;;;;;;;5050187;28;20112;-77
2023/02/25 13:52:08;;;;;;;8.73;2.47;;;;;;;;;;5047455;28;20483;-77
2023/02/25 13:54:37;;;;;;;10.80;2.20;;;;;;;;;;5048719;28;20029;-77
2023/02/25 13:57:21;;;;;;;8.75;2.20;;;;;;;;;;5049567;28;20061;-77
2023/02/25 13:59:56;;;;;;;8.63;2.08;;;;;;;;;;5057478;28;20033;-77
2023/02/25 14:02:38;;;;;;;8.13;2.42;;;;;;;;;;5052777;28;20486;-77
2023/02/25 14:05:16;;;;;;;6.43;2.27;;;;;;;;;;5041986;28;20031;-77
2023/02/25 14:07:51;;;;;;;8.07;1.80;;;;;;;;;;5048207;28;20061;-77
2023/02/25 14:10:23;;;;;;;9.95;2.13;;;;;;;;;;5043414;28;20035;-77
2023/02/25 14:12:58;;;;;;;8.65;1.85;;;;;;;;;;5045082;28;20032;-77
2023/02/25 14:15:33;;;;;;;8.60;2.05;;;;;;;;;;5049371;28;20129;-77
2023/02/25 14:18:18;;;;;;;7.22;2.22;;;;;;;;;;5045090;28;20020;-77
2023/02/25 14:21:07;;;;;;;8.48;2.10;;;;;;;;;;5047788;28;20032;-77
2023/02/25 14:23:43;;;;;;;7.88;1.92;;;;;;;;;;5048990;28;20600;-77
2023/02/25 14:26:09;;;;;;;9.07;1.83;;;;;;;;;;5040432;28;20028;-77
2023/02/25 14:28:43;;;;;;;6.43;1.65;;;;;;;;;;5045993;28;20036;-77
2023/02/25 14:31:15;;;;;;;7.82;2.10;;;;;;;;;;5045395;28;20071;-77
2023/02/25 14:33:54;;;;;;;8.23;1.70;;;;;;;;;;5027277;28;20041;-77
2023/02/25 14:36:36;;;;;;;8.52;2.22;;;;;;;;;;5048887;28;20079;-77
2023/02/25 14:39:02;;;;;;;11.27;2.50;;;;;;;;;;5044812;28;20028;-77
2023/02/25 14:41:40;;;;;;;6.63;2.15;;;;;;;;;;5042903;28;20306;-77
2023/02/25 14:44:10;;;;;;;6.97;2.25;;;;;;;;;;5046277;28;20033;-77
2023/02/25 14:46:51;;;;;;;7.20;1.98;;;;;;;;;;5046049;28;20056;-77
2023/02/25 14:49:20;;;;;;;7.25;2.70;;;;;;;;;;5046319;28;20825;-77
2023/02/25 14:51:52;;;;;;;10.13;1.73;;;;;;;;;;5044706;28;20042;-77
2023/02/25 14:54:18;;;;;;;;;;;;;;;;;;5048932;28;20024;-76